createdAt,value
2019-06-15T00:00:23.339Z,8.23
2019-06-15T00:02:52.571Z,7.17
2019-06-15T00:05:21.758Z,6.20
2019-06-15T00:07:50.708Z,6.30
2019-06-15T00:10:20.203Z,6.33
2019-06-15T00:12:49.306Z,6.20
2019-06-15T00:15:18.475Z,8.63
2019-06-15T00:17:47.331Z,7.40
2019-06-15T00:20:16.958Z,6.87
2019-06-15T00:22:45.883Z,5.80
2019-06-15T00:25:14.994Z,6.93
2019-06-15T00:27:43.999Z,5.87
2019-06-15T00:30:13.240Z,11.77
2019-06-15T00:32:42.230Z,7.80
2019-06-15T00:35:11.235Z,8.90
2019-06-15T00:37:40.244Z,7.57
2019-06-15T00:40:09.604Z,6.00
2019-06-15T00:42:38.558Z,6.37
2019-06-15T00:45:09.086Z,6.27
2019-06-15T00:47:38.091Z,5.53
2019-06-15T00:50:07.265Z,7.03
2019-06-15T00:52:36.432Z,6.97
2019-06-15T00:55:05.839Z,6.73
2019-06-15T00:57:34.970Z,6.87
2019-06-15T01:00:04.523Z,7.27
2019-06-15T01:02:33.578Z,7.90
2019-06-15T01:05:02.550Z,11.87
2019-06-15T01:07:31.775Z,9.03
2019-06-15T01:10:00.922Z,8.70
2019-06-15T01:12:29.897Z,8.90
2019-06-15T01:14:58.938Z,9.23
2019-06-15T01:17:27.827Z,8.73
2019-06-15T01:19:56.799Z,7.57
2019-06-15T01:22:25.933Z,8.40
2019-06-15T01:25:05.219Z,8.27
2019-06-15T01:27:26.784Z,8.87
2019-06-15T01:29:55.762Z,8.60
2019-06-15T01:32:24.761Z,8.40
2019-06-15T01:34:53.901Z,8.70
2019-06-15T01:37:22.850Z,8.83
2019-06-15T01:39:51.743Z,8.10
2019-06-15T01:42:20.773Z,8.03
2019-06-15T01:44:49.846Z,7.77
2019-06-15T01:47:19.108Z,7.50
2019-06-15T01:49:47.981Z,7.70
2019-06-15T01:52:17.092Z,8.17
2019-06-15T01:54:46.091Z,8.57
2019-06-15T01:57:15.054Z,7.43
2019-06-15T01:59:44.048Z,7.03
2019-06-15T02:02:13.006Z,7.23
2019-06-15T02:04:41.980Z,6.90
2019-06-15T02:07:10.837Z,6.70
2019-06-15T02:09:39.770Z,7.13
2019-06-15T02:12:08.714Z,7.00
2019-06-15T02:14:37.590Z,7.50
2019-06-15T02:17:06.571Z,6.33
2019-06-15T02:19:35.542Z,7.07
2019-06-15T02:22:04.662Z,7.40
2019-06-15T02:24:33.644Z,7.70
2019-06-15T02:27:02.727Z,7.27
2019-06-15T02:29:31.769Z,7.20
2019-06-15T02:32:00.740Z,7.07
2019-06-15T02:34:29.721Z,6.97
2019-06-15T02:36:58.731Z,6.30
2019-06-15T02:39:27.825Z,5.40
2019-06-15T02:41:57.069Z,5.40
2019-06-15T02:44:26.340Z,5.63
2019-06-15T02:46:55.403Z,5.53
2019-06-15T02:49:24.394Z,5.17
2019-06-15T02:51:53.706Z,5.87
2019-06-15T02:54:22.703Z,5.63
2019-06-15T02:56:51.628Z,5.50
2019-06-15T02:59:20.664Z,5.60
2019-06-15T03:01:49.676Z,5.23
2019-06-15T03:04:19.041Z,6.60
2019-06-15T03:06:48.668Z,5.53
2019-06-15T03:09:17.678Z,6.70
2019-06-15T03:11:46.778Z,6.20
2019-06-15T03:14:15.810Z,6.60
2019-06-15T03:16:44.820Z,6.40
2019-06-15T03:19:13.756Z,7.17
2019-06-15T03:21:42.681Z,6.97
2019-06-15T03:24:12.074Z,6.40
2019-06-15T03:26:40.976Z,6.87
2019-06-15T03:29:09.859Z,7.03
2019-06-15T03:31:38.821Z,7.07
2019-06-15T03:34:07.944Z,7.43
2019-06-15T03:36:36.854Z,6.60
2019-06-15T03:39:06.981Z,6.47
2019-06-15T03:41:36.147Z,6.53
2019-06-15T03:44:05.379Z,5.70
2019-06-15T03:46:34.418Z,6.30
2019-06-15T03:49:03.446Z,6.00
2019-06-15T03:51:32.428Z,6.90
2019-06-15T03:54:01.346Z,6.13
2019-06-15T03:56:30.405Z,6.17
2019-06-15T03:58:59.278Z,6.67
2019-06-15T04:01:37.593Z,6.90
2019-06-15T04:04:06.692Z,7.13
2019-06-15T04:06:35.650Z,7.33
2019-06-15T04:09:06.347Z,7.20
2019-06-15T04:11:35.330Z,8.23
2019-06-15T04:14:04.641Z,7.90
2019-06-15T04:16:35.359Z,7.57
2019-06-15T04:19:05.264Z,8.27
2019-06-15T04:21:34.313Z,7.80
2019-06-15T04:24:03.423Z,8.60
2019-06-15T04:26:35.919Z,8.50
2019-06-15T04:29:03.137Z,7.77
2019-06-15T04:31:32.038Z,7.87
2019-06-15T04:34:01.051Z,8.77
2019-06-15T04:36:30.259Z,7.70
2019-06-15T04:38:59.184Z,8.17
2019-06-15T04:41:28.343Z,8.50
2019-06-15T04:43:57.608Z,8.33
2019-06-15T04:46:26.557Z,8.43
2019-06-15T04:48:55.521Z,7.73
2019-06-15T04:51:24.479Z,8.17
2019-06-15T04:53:53.552Z,8.57
2019-06-15T04:56:22.491Z,7.63
2019-06-15T04:58:51.549Z,8.73
2019-06-15T05:01:20.609Z,8.77
2019-06-15T05:03:49.515Z,8.00
2019-06-15T05:06:19.177Z,7.40
2019-06-15T05:08:49.054Z,7.70
2019-06-15T05:11:18.200Z,7.13
2019-06-15T05:13:47.104Z,7.60
2019-06-15T05:16:16.126Z,7.73
2019-06-15T05:18:45.040Z,6.93
2019-06-15T05:21:14.240Z,6.10
2019-06-15T05:23:43.346Z,5.50
2019-06-15T05:26:12.215Z,5.80
2019-06-15T05:28:41.118Z,5.27
2019-06-15T05:31:09.945Z,5.47
2019-06-15T05:33:39.246Z,5.87
2019-06-15T05:36:08.147Z,5.47
2019-06-15T05:38:37.112Z,5.47
2019-06-15T05:41:06.182Z,5.83
2019-06-15T05:43:35.070Z,6.10
2019-06-15T05:46:04.002Z,6.40
2019-06-15T05:48:32.898Z,6.00
2019-06-15T05:51:01.914Z,7.23
2019-06-15T05:53:30.766Z,6.50
2019-06-15T05:55:59.654Z,6.90
2019-06-15T05:58:28.572Z,6.40
2019-06-15T06:00:57.560Z,6.87
2019-06-15T06:03:27.626Z,6.03
2019-06-15T06:05:56.706Z,7.00
2019-06-15T06:08:25.715Z,6.77
2019-06-15T06:10:54.654Z,6.07
2019-06-15T06:13:23.972Z,6.73
2019-06-15T06:15:53.077Z,6.80
2019-06-15T06:18:21.996Z,7.10
2019-06-15T06:20:50.892Z,6.53
2019-06-15T06:23:19.766Z,6.53
2019-06-15T06:25:48.904Z,7.20
2019-06-15T06:28:17.897Z,6.30
2019-06-15T06:30:46.875Z,7.63
2019-06-15T06:33:15.775Z,8.80
2019-06-15T06:35:45.046Z,7.90
2019-06-15T06:38:14.068Z,7.63
2019-06-15T06:40:43.073Z,5.77
2019-06-15T06:43:12.314Z,5.90
2019-06-15T06:45:41.552Z,6.27
2019-06-15T06:48:10.695Z,5.40
2019-06-15T06:50:41.393Z,5.00
2019-06-15T06:53:10.786Z,4.70
2019-06-15T06:55:40.208Z,4.77
2019-06-15T06:58:09.606Z,5.07
2019-06-15T07:00:38.909Z,4.73
2019-06-15T07:03:08.238Z,3.83
2019-06-15T07:05:37.643Z,4.67
2019-06-15T07:08:06.920Z,3.70
2019-06-15T07:10:36.290Z,3.90
2019-06-15T07:13:05.620Z,4.07
2019-06-15T07:15:34.925Z,3.73
2019-06-15T07:18:04.547Z,3.70
2019-06-15T07:20:34.193Z,3.83
2019-06-15T07:23:03.717Z,3.50
2019-06-15T07:25:33.209Z,3.63
2019-06-15T07:28:07.910Z,4.73
2019-06-15T07:30:33.666Z,3.47
2019-06-15T07:33:05.557Z,3.30
2019-06-15T07:35:35.373Z,3.70
2019-06-15T07:38:07.581Z,4.50
2019-06-15T07:40:37.099Z,3.30
2019-06-15T07:43:09.332Z,3.37
2019-06-15T07:45:39.042Z,3.20
2019-06-15T07:48:11.559Z,3.20
2019-06-15T07:50:57.544Z,2.83
2019-06-15T07:53:27.087Z,4.20
2019-06-15T07:55:56.385Z,3.33
2019-06-15T07:58:25.841Z,3.40
2019-06-15T08:00:55.635Z,3.70
2019-06-15T08:03:25.037Z,3.27
2019-06-15T08:05:54.590Z,3.00
2019-06-15T08:08:23.937Z,1.90
2019-06-15T08:10:55.966Z,2.40
2019-06-15T08:13:24.880Z,1.50
2019-06-15T08:15:54.962Z,1.93
2019-06-15T08:18:23.977Z,1.70
2019-06-15T08:20:52.999Z,1.53
2019-06-15T08:23:22.134Z,1.53
2019-06-15T08:25:51.878Z,1.90
2019-06-15T08:28:21.074Z,1.97
2019-06-15T08:30:49.996Z,1.80
2019-06-15T08:33:19.175Z,1.90
2019-06-15T08:35:48.106Z,1.50
2019-06-15T08:38:17.124Z,1.35
2019-06-15T08:40:46.115Z,1.57
2019-06-15T08:43:15.140Z,1.20
2019-06-15T08:45:44.466Z,1.40
2019-06-15T08:48:13.440Z,1.47
2019-06-15T08:50:42.482Z,1.20
2019-06-15T08:53:11.505Z,1.57
2019-06-15T08:55:40.741Z,1.90
2019-06-15T08:58:09.742Z,1.33
2019-06-15T09:00:39.003Z,1.30
2019-06-15T09:03:08.163Z,1.13
2019-06-15T09:05:40.399Z,1.30
2019-06-15T09:08:09.402Z,1.17
2019-06-15T09:10:38.585Z,1.40
2019-06-15T09:13:07.654Z,1.30
2019-06-15T09:15:46.880Z,1.20
2019-06-15T09:18:16.065Z,1.50
2019-06-15T09:20:45.037Z,1.10
2019-06-15T09:23:14.044Z,1.27
2019-06-15T09:25:43.465Z,1.10
2019-06-15T09:28:12.378Z,1.13
2019-06-15T09:30:41.969Z,1.10
2019-06-15T09:33:11.047Z,1.00
2019-06-15T09:35:39.995Z,1.00
2019-06-15T09:38:09.089Z,1.17
2019-06-15T09:40:38.112Z,1.03
2019-06-15T09:43:07.215Z,1.10
2019-06-15T09:45:36.004Z,1.00
2019-06-15T09:48:05.500Z,1.20
2019-06-15T09:50:34.649Z,1.03
2019-06-15T09:53:03.934Z,1.10
2019-06-15T09:55:32.964Z,1.00
2019-06-15T09:58:02.029Z,1.20
2019-06-15T10:00:31.065Z,1.00
2019-06-15T10:03:00.128Z,1.40
2019-06-15T10:05:29.712Z,1.40
2019-06-15T10:07:58.709Z,1.40
2019-06-15T10:10:27.657Z,1.47
2019-06-15T10:12:56.518Z,1.20
2019-06-15T10:15:25.607Z,1.13
2019-06-15T10:17:54.791Z,1.20
2019-06-15T10:20:24.299Z,1.20
2019-06-15T10:22:53.810Z,1.20
2019-06-15T10:25:23.050Z,1.13
2019-06-15T10:27:55.266Z,1.57
2019-06-15T10:30:24.257Z,1.67
2019-06-15T10:32:53.194Z,1.13
2019-06-15T10:35:22.303Z,1.27
2019-06-15T10:37:51.885Z,1.50
2019-06-15T10:40:21.486Z,1.40
2019-06-15T10:42:52.654Z,1.37
2019-06-15T10:45:22.594Z,1.30
2019-06-15T10:47:52.085Z,1.60
2019-06-15T10:50:21.223Z,1.50
2019-06-15T10:52:50.298Z,1.77
2019-06-15T10:55:19.448Z,1.33
2019-06-15T10:57:48.477Z,1.47
2019-06-15T11:00:17.566Z,1.30
2019-06-15T11:02:46.800Z,1.23
2019-06-15T11:05:19.052Z,1.30
2019-06-15T11:07:48.168Z,1.30
2019-06-15T11:10:25.059Z,1.40
2019-06-15T11:12:54.080Z,1.40
2019-06-15T11:15:22.962Z,1.60
2019-06-15T11:17:52.076Z,1.87
2019-06-15T11:20:21.071Z,1.20
2019-06-15T11:22:50.294Z,1.40
2019-06-15T11:25:19.792Z,1.40
2019-06-15T11:27:51.227Z,1.53
2019-06-15T11:30:20.775Z,1.60
2019-06-15T11:32:50.873Z,1.30
2019-06-15T11:35:20.267Z,1.60
2019-06-15T11:37:49.176Z,1.50
2019-06-15T11:40:18.218Z,1.70
2019-06-15T11:42:49.748Z,1.50
2019-06-15T11:45:18.114Z,1.80
2019-06-15T11:47:47.325Z,1.60
2019-06-15T11:50:16.399Z,1.40
2019-06-15T11:52:45.230Z,2.70
2019-06-15T11:55:14.586Z,2.20
2019-06-15T11:57:43.455Z,2.27
2019-06-15T12:00:29.677Z,1.83
2019-06-15T12:02:43.347Z,1.57
2019-06-15T12:05:15.307Z,1.80
2019-06-15T12:07:44.249Z,1.50
2019-06-15T12:10:13.644Z,2.07
2019-06-15T12:12:45.136Z,2.23
2019-06-15T12:15:14.237Z,2.23
2019-06-15T12:17:43.405Z,1.77
2019-06-15T12:20:12.507Z,2.07
2019-06-15T12:22:41.775Z,2.17
2019-06-15T12:25:11.614Z,1.90
2019-06-15T12:27:40.999Z,2.80
2019-06-15T12:30:11.751Z,2.20
2019-06-15T12:32:41.208Z,2.10
2019-06-15T12:35:12.982Z,2.00
2019-06-15T12:37:42.667Z,2.20
2019-06-15T12:40:12.128Z,2.00
2019-06-15T12:42:41.112Z,2.10
2019-06-15T12:45:10.173Z,2.33
2019-06-15T12:47:39.100Z,2.07
2019-06-15T12:50:09.065Z,2.60
2019-06-15T12:52:38.032Z,1.80
2019-06-15T12:55:07.103Z,1.80
2019-06-15T12:57:36.034Z,2.10
2019-06-15T13:00:05.709Z,1.97
2019-06-15T13:02:34.592Z,2.03
2019-06-15T13:05:03.606Z,1.60
2019-06-15T13:07:32.557Z,2.00
2019-06-15T13:10:01.899Z,1.83
2019-06-15T13:12:30.927Z,1.80
2019-06-15T13:15:00.265Z,2.10
2019-06-15T13:17:29.212Z,1.97
2019-06-15T13:19:58.121Z,2.10
2019-06-15T13:22:26.960Z,2.47
2019-06-15T13:24:55.968Z,2.00
2019-06-15T13:27:25.016Z,2.60
2019-06-15T13:29:55.772Z,2.10
2019-06-15T13:32:25.376Z,2.10
2019-06-15T13:34:54.490Z,2.20
2019-06-15T13:37:23.772Z,1.97
2019-06-15T13:39:52.967Z,2.50
2019-06-15T13:42:22.307Z,2.70
2019-06-15T13:44:51.808Z,2.10
2019-06-15T13:47:21.088Z,2.27
2019-06-15T13:49:50.666Z,2.40
2019-06-15T13:52:21.084Z,2.40
2019-06-15T13:54:50.112Z,2.43
2019-06-15T13:57:19.157Z,2.53
2019-06-15T13:59:48.144Z,2.57
2019-06-15T14:02:17.047Z,2.53
2019-06-15T14:04:46.023Z,2.50
2019-06-15T14:07:14.945Z,2.27
2019-06-15T14:09:44.155Z,2.77
2019-06-15T14:12:13.145Z,2.67
2019-06-15T14:14:42.094Z,2.63
2019-06-15T14:17:11.110Z,2.10
2019-06-15T14:19:40.239Z,2.40
2019-06-15T14:22:09.108Z,2.77
2019-06-15T14:24:38.109Z,2.43
2019-06-15T14:27:07.124Z,2.80
2019-06-15T14:29:36.090Z,2.70
2019-06-15T14:32:05.124Z,2.60
2019-06-15T14:34:34.058Z,2.60
2019-06-15T14:37:02.970Z,2.50
2019-06-15T14:39:31.956Z,2.37
2019-06-15T14:42:00.853Z,2.73
2019-06-15T14:44:29.851Z,2.57
2019-06-15T14:46:58.849Z,3.17
2019-06-15T14:49:28.056Z,2.60
2019-06-15T14:51:57.062Z,2.73
2019-06-15T14:54:26.494Z,2.37
2019-06-15T14:56:56.605Z,2.37
2019-06-15T14:59:26.523Z,2.37
2019-06-15T15:02:09.153Z,2.33
2019-06-15T15:04:26.716Z,2.43
2019-06-15T15:06:56.529Z,2.70
2019-06-15T15:09:25.876Z,2.50
2019-06-15T15:11:56.639Z,2.10
2019-06-15T15:14:26.122Z,2.50
2019-06-15T15:16:56.985Z,2.40
2019-06-15T15:19:27.309Z,2.20
2019-06-15T15:21:56.675Z,2.30
2019-06-15T15:24:27.355Z,2.37
2019-06-15T15:26:56.471Z,2.47
2019-06-15T15:29:26.989Z,2.27
2019-06-15T15:31:57.362Z,2.40
2019-06-15T15:34:27.074Z,2.40
2019-06-15T15:36:56.729Z,2.43
2019-06-15T15:39:27.366Z,2.07
2019-06-15T15:41:56.424Z,2.50
2019-06-15T15:44:26.910Z,2.93
2019-06-15T15:46:56.995Z,2.40
2019-06-15T15:49:26.916Z,2.00
2019-06-15T15:51:56.718Z,2.60
2019-06-15T15:54:26.052Z,2.20
2019-06-15T15:56:55.947Z,2.47
2019-06-15T15:59:25.495Z,2.50
2019-06-15T16:01:56.591Z,2.53
2019-06-15T16:04:26.252Z,2.20
2019-06-15T16:06:56.145Z,2.27
2019-06-15T16:09:27.112Z,2.30
2019-06-15T16:11:56.605Z,2.17
2019-06-15T16:14:26.591Z,2.47
2019-06-15T16:16:56.048Z,2.47
2019-06-15T16:19:26.226Z,2.57
2019-06-15T16:21:56.071Z,2.37
2019-06-15T16:24:27.270Z,2.30
2019-06-15T16:26:56.641Z,2.43
2019-06-15T16:29:25.629Z,2.40
2019-06-15T16:31:56.429Z,2.73
2019-06-15T16:34:26.998Z,2.40
2019-06-15T16:36:57.004Z,2.33
2019-06-15T16:39:26.941Z,2.23
2019-06-15T16:41:56.251Z,2.50
2019-06-15T16:44:25.181Z,2.40
2019-06-15T16:46:56.458Z,2.63
2019-06-15T16:49:26.879Z,2.60
2019-06-15T16:51:55.944Z,2.43
2019-06-15T16:54:27.044Z,2.57
2019-06-15T16:56:55.987Z,4.70
2019-06-15T16:59:25.242Z,2.77
2019-06-15T17:01:56.029Z,2.57
2019-06-15T17:04:26.813Z,2.50
2019-06-15T17:06:56.584Z,2.53
2019-06-15T17:09:27.622Z,2.63
2019-06-15T17:11:57.043Z,2.73
2019-06-15T17:14:27.082Z,2.70
2019-06-15T17:16:56.755Z,2.30
2019-06-15T17:19:26.937Z,3.20
2019-06-15T17:21:58.175Z,3.13
2019-06-15T17:24:26.983Z,2.57
2019-06-15T17:26:57.072Z,3.27
2019-06-15T17:29:29.060Z,3.20
2019-06-15T17:31:58.092Z,2.83
2019-06-15T17:34:26.973Z,2.60
2019-06-15T17:36:57.444Z,3.10
2019-06-15T17:39:29.357Z,3.03
2019-06-15T17:41:57.594Z,3.13
2019-06-15T17:44:26.582Z,2.57
2019-06-15T17:46:56.573Z,3.13
2019-06-15T17:49:27.129Z,3.70
2019-06-15T17:51:56.315Z,3.20
2019-06-15T17:54:27.365Z,3.53
2019-06-15T17:56:56.845Z,4.37
2019-06-15T17:59:26.831Z,3.47
2019-06-15T18:01:55.856Z,3.90
2019-06-15T18:04:24.915Z,2.93
2019-06-15T18:06:56.636Z,2.20
2019-06-15T18:09:25.912Z,2.63
2019-06-15T18:11:57.033Z,3.00
2019-06-15T18:14:26.403Z,2.60
2019-06-15T18:16:58.106Z,2.80
2019-06-15T18:19:26.436Z,3.50
2019-06-15T18:21:56.184Z,2.70
2019-06-15T18:24:26.590Z,2.63
2019-06-15T18:26:56.525Z,2.67
2019-06-15T18:29:26.438Z,2.80
2019-06-15T18:31:56.689Z,2.43
2019-06-15T18:34:25.817Z,6.40
2019-06-15T18:36:56.158Z,2.80
2019-06-15T18:39:26.385Z,3.20
2019-06-15T18:41:56.006Z,4.23
2019-06-15T18:44:26.893Z,3.00
2019-06-15T18:46:56.522Z,2.70
2019-06-15T18:49:26.838Z,2.80
2019-06-15T18:51:56.825Z,2.80
2019-06-15T18:54:26.522Z,3.00
2019-06-15T18:56:56.609Z,2.43
2019-06-15T18:59:26.188Z,3.20
2019-06-15T19:01:56.087Z,3.37
2019-06-15T19:04:30.758Z,3.00
2019-06-15T19:06:56.764Z,3.30
2019-06-15T19:09:26.744Z,3.00
2019-06-15T19:11:56.631Z,3.73
2019-06-15T19:14:27.087Z,2.90
2019-06-15T19:16:56.735Z,2.83
2019-06-15T19:19:26.564Z,3.10
2019-06-15T19:21:57.122Z,3.10
2019-06-15T19:24:26.593Z,3.17
2019-06-15T19:26:58.161Z,3.00
2019-06-15T19:29:26.967Z,2.67
2019-06-15T19:31:57.216Z,3.20
2019-06-15T19:34:41.145Z,3.20
2019-06-15T19:36:57.327Z,2.93
2019-06-15T19:39:27.190Z,3.10
2019-06-15T19:41:56.440Z,2.70
2019-06-15T19:44:27.508Z,2.73
2019-06-15T19:46:56.854Z,2.53
2019-06-15T19:49:27.306Z,2.90
2019-06-15T19:51:56.560Z,2.93
2019-06-15T19:54:26.446Z,2.70
2019-06-15T19:56:56.503Z,3.20
2019-06-15T19:59:26.351Z,3.27
2019-06-15T20:01:55.458Z,2.90
2019-06-15T20:04:26.886Z,3.77
2019-06-15T20:06:56.814Z,3.70
2019-06-15T20:09:26.070Z,3.33
2019-06-15T20:11:56.035Z,2.73
2019-06-15T20:14:25.661Z,3.10
2019-06-15T20:16:56.106Z,3.40
2019-06-15T20:19:26.661Z,2.97
2019-06-15T20:21:56.946Z,3.33
2019-06-15T20:24:27.319Z,3.17
2019-06-15T20:26:58.504Z,2.67
2019-06-15T20:29:27.226Z,2.70
2019-06-15T20:31:57.059Z,3.50
2019-06-15T20:34:26.700Z,2.97
2019-06-15T20:36:55.774Z,2.50
2019-06-15T20:39:26.667Z,2.80
2019-06-15T20:41:56.424Z,2.70
2019-06-15T20:44:26.070Z,2.50
2019-06-15T20:46:57.050Z,2.37
2019-06-15T20:49:26.520Z,3.30
2019-06-15T20:51:56.121Z,2.73
2019-06-15T20:54:25.588Z,2.50
2019-06-15T20:56:56.834Z,2.73
2019-06-15T20:59:26.191Z,2.77
2019-06-15T21:01:56.309Z,2.73
2019-06-15T21:04:26.686Z,2.70
2019-06-15T21:06:55.996Z,2.60
2019-06-15T21:09:27.526Z,2.87
2019-06-15T21:11:55.888Z,2.60
2019-06-15T21:14:27.142Z,3.10
2019-06-15T21:16:56.822Z,2.47
2019-06-15T21:19:26.320Z,3.00
2019-06-15T21:21:56.725Z,2.57
2019-06-15T21:24:26.370Z,2.60
2019-06-15T21:26:56.380Z,2.50
2019-06-15T21:29:26.428Z,2.70
2019-06-15T21:31:56.906Z,2.50
2019-06-15T21:34:26.554Z,2.77
2019-06-15T21:36:56.718Z,2.40
2019-06-15T21:39:26.575Z,3.07
2019-06-15T21:41:56.898Z,2.97
2019-06-15T21:44:26.604Z,3.77
2019-06-15T21:46:56.258Z,3.23
2019-06-15T21:49:26.361Z,3.37
2019-06-15T21:51:56.415Z,3.80
2019-06-15T21:54:26.711Z,3.70
2019-06-15T21:56:56.570Z,3.53
2019-06-15T21:59:26.218Z,3.37
2019-06-15T22:01:55.582Z,3.10
2019-06-15T22:04:25.952Z,3.63
2019-06-15T22:06:56.373Z,3.20
2019-06-15T22:09:26.476Z,3.00
2019-06-15T22:11:56.143Z,2.40
2019-06-15T22:14:26.554Z,3.30
2019-06-15T22:16:56.949Z,2.60
2019-06-15T22:19:26.272Z,3.03
2019-06-15T22:21:55.748Z,2.73
2019-06-15T22:24:26.647Z,2.70
2019-06-15T22:26:56.106Z,2.73
2019-06-15T22:29:27.379Z,3.00
2019-06-15T22:31:56.345Z,3.40
2019-06-15T22:34:25.459Z,3.03
2019-06-15T22:36:56.963Z,2.90
2019-06-15T22:39:26.817Z,2.97
2019-06-15T22:41:56.153Z,2.90
2019-06-15T22:44:27.487Z,3.00
2019-06-15T22:46:56.842Z,2.90
2019-06-15T22:49:25.928Z,2.83
2019-06-15T22:51:56.879Z,2.90
2019-06-15T22:54:26.139Z,2.97
2019-06-15T22:56:56.615Z,3.10
2019-06-15T22:59:26.070Z,2.87
2019-06-15T23:01:57.372Z,4.73
2019-06-15T23:04:26.603Z,3.70
2019-06-15T23:06:56.499Z,6.17
2019-06-15T23:09:25.603Z,3.40
2019-06-15T23:11:56.598Z,3.10
2019-06-15T23:14:26.163Z,3.20
2019-06-15T23:16:56.752Z,3.57
2019-06-15T23:19:26.289Z,3.13
2019-06-15T23:21:57.218Z,3.37
2019-06-15T23:24:27.242Z,3.53
2019-06-15T23:26:57.140Z,3.17
2019-06-15T23:29:27.100Z,3.23
2019-06-15T23:31:57.191Z,3.50
2019-06-15T23:34:27.091Z,3.40
2019-06-15T23:37:00.721Z,3.10
2019-06-15T23:39:28.533Z,3.30
2019-06-15T23:41:57.443Z,3.23
2019-06-15T23:44:27.061Z,3.43
2019-06-15T23:46:56.425Z,3.73
2019-06-15T23:49:26.923Z,3.10
2019-06-15T23:51:57.295Z,3.63
2019-06-15T23:54:27.892Z,3.00
2019-06-15T23:56:57.024Z,3.30
2019-06-15T23:59:26.473Z,4.47
